createdAt,value
2018-05-15T00:03:20.925Z,62.00
2018-05-15T00:08:25.059Z,65.40
2018-05-15T00:13:26.508Z,65.40
2018-05-15T00:18:27.780Z,66.20
2018-05-15T00:23:29.813Z,66.20
2018-05-15T00:28:31.109Z,66.10
2018-05-15T00:33:33.220Z,66.20
2018-05-15T00:38:34.474Z,66.70
2018-05-15T00:43:38.596Z,64.60
2018-05-15T00:48:42.010Z,64.60
2018-05-15T00:53:43.255Z,64.80
2018-05-15T00:58:44.479Z,67.70
2018-05-15T01:03:49.424Z,69.60
2018-05-15T01:08:50.670Z,73.40
2018-05-15T01:13:52.871Z,75.30
2018-05-15T01:18:54.253Z,79.00
2018-05-15T01:23:55.547Z,81.20
2018-05-15T01:28:57.857Z,82.70
2018-05-15T01:33:59.155Z,82.80
2018-05-15T01:39:00.560Z,83.60
2018-05-15T01:44:01.853Z,84.20
2018-05-15T01:49:03.204Z,83.40
2018-05-15T01:54:04.595Z,84.90
2018-05-15T01:59:05.898Z,84.50
2018-05-15T02:04:08.277Z,85.40
2018-05-15T02:09:10.348Z,87.10
2018-05-15T02:14:11.588Z,87.20
2018-05-15T02:19:13.859Z,86.60
2018-05-15T02:24:15.091Z,85.20
2018-05-15T02:29:17.485Z,86.10
2018-05-15T02:34:18.719Z,86.70
2018-05-15T02:39:20.090Z,87.50
2018-05-15T02:44:21.412Z,88.40
2018-05-15T02:49:24.709Z,89.80
2018-05-15T02:54:25.993Z,90.20
2018-05-15T02:59:28.077Z,88.70
2018-05-15T03:04:30.128Z,88.70
2018-05-15T03:09:31.484Z,88.60
2018-05-15T03:14:33.770Z,87.90
2018-05-15T03:19:35.045Z,87.10
2018-05-15T03:24:36.420Z,86.10
2018-05-15T03:29:37.707Z,85.50
2018-05-15T03:34:39.967Z,83.90
2018-05-15T03:39:41.332Z,82.80
2018-05-15T03:44:42.650Z,82.60
2018-05-15T03:49:43.904Z,82.40
2018-05-15T03:54:45.214Z,84.60
2018-05-15T03:59:46.587Z,85.40
2018-05-15T04:05:00.043Z,84.30
2018-05-15T04:10:02.158Z,86.00
2018-05-15T04:15:08.750Z,86.00
2018-05-15T04:20:10.023Z,86.10
2018-05-15T04:25:14.424Z,86.50
2018-05-15T04:30:16.707Z,85.70
2018-05-15T04:35:18.855Z,79.70
2018-05-15T04:40:25.651Z,79.60
2018-05-15T04:45:31.679Z,72.60
2018-05-15T04:50:32.948Z,72.50
2018-05-15T04:55:34.202Z,66.40
2018-05-15T05:00:35.455Z,63.30
2018-05-15T05:05:36.705Z,60.30
2018-05-15T05:10:37.981Z,55.10
2018-05-15T05:15:39.226Z,53.00
2018-05-15T05:20:40.493Z,51.60
2018-05-15T05:25:41.758Z,49.90
2018-05-15T05:30:43.860Z,51.00
2018-05-15T05:35:45.302Z,51.60
2018-05-15T05:40:46.703Z,50.20
2018-05-15T05:45:48.027Z,50.10
2018-05-15T05:50:49.283Z,49.60
2018-05-15T05:55:52.462Z,50.00
2018-05-15T06:00:53.821Z,49.90
2018-05-15T06:05:55.127Z,49.50
2018-05-15T06:10:58.167Z,50.30
2018-05-15T06:16:00.222Z,51.10
2018-05-15T06:21:01.590Z,50.50
2018-05-15T06:26:02.836Z,49.30
2018-05-15T06:31:04.138Z,50.10
2018-05-15T06:36:06.207Z,45.00
2018-05-15T06:41:07.641Z,45.00
2018-05-15T06:46:08.893Z,45.90
2018-05-15T06:51:10.174Z,48.10
2018-05-15T06:56:11.615Z,48.10
2018-05-15T07:01:13.705Z,48.40
2018-05-15T07:06:15.008Z,48.40
2018-05-15T07:11:17.102Z,49.80
2018-05-15T07:16:19.167Z,51.20
2018-05-15T07:21:20.531Z,51.10
2018-05-15T07:26:22.543Z,53.50
2018-05-15T07:31:23.815Z,53.50
2018-05-15T07:36:25.052Z,54.30
2018-05-15T07:41:26.371Z,54.10
2018-05-15T07:46:27.776Z,52.60
2018-05-15T07:51:29.113Z,51.80
2018-05-15T07:56:30.485Z,51.20
2018-05-15T08:01:32.545Z,48.80
2018-05-15T08:06:33.946Z,48.70
2018-05-15T08:11:35.230Z,48.80
2018-05-15T08:16:36.656Z,46.60
2018-05-15T08:21:38.694Z,47.80
2018-05-15T08:26:39.904Z,47.80
2018-05-15T08:31:42.023Z,48.40
2018-05-15T08:36:43.313Z,49.00
2018-05-15T08:41:46.081Z,44.00
2018-05-15T08:46:47.350Z,43.90
2018-05-15T08:51:48.613Z,44.40
2018-05-15T08:56:49.913Z,42.90
2018-05-15T09:01:51.997Z,43.10
2018-05-15T09:06:54.020Z,43.70
2018-05-15T09:11:55.310Z,43.60
2018-05-15T09:16:56.705Z,41.70
2018-05-15T09:21:58.788Z,40.50
2018-05-15T09:27:00.732Z,41.90
2018-05-15T09:32:02.142Z,41.80
2018-05-15T09:37:03.425Z,39.30
2018-05-15T09:42:04.751Z,39.70
2018-05-15T09:47:06.890Z,40.20
2018-05-15T09:52:08.128Z,40.20
2018-05-15T09:57:10.623Z,38.00
2018-05-15T10:02:11.925Z,37.50
2018-05-15T10:07:14.243Z,37.70
2018-05-15T10:12:15.572Z,37.60
2018-05-15T10:17:16.907Z,36.30
2018-05-15T10:22:18.282Z,35.00
2018-05-15T10:27:19.603Z,36.20
2018-05-15T10:32:20.949Z,37.00
2018-05-15T10:37:22.265Z,37.90
2018-05-15T10:42:23.519Z,36.90
2018-05-15T10:47:24.803Z,36.90
2018-05-15T10:52:26.125Z,36.70
2018-05-15T10:57:27.380Z,36.30
2018-05-15T11:02:28.730Z,35.40
2018-05-15T11:07:30.090Z,36.60
2018-05-15T11:12:31.396Z,33.90
2018-05-15T11:17:32.824Z,36.00
2018-05-15T11:27:56.541Z,37.10
2018-05-15T11:32:57.892Z,37.10
2018-05-15T11:37:59.977Z,38.20
2018-05-15T11:43:01.322Z,38.00
2018-05-15T11:48:03.916Z,37.70
2018-05-15T11:53:05.674Z,37.70
2018-05-15T11:58:07.001Z,35.50
2018-05-15T12:03:08.415Z,35.20
2018-05-15T12:08:10.555Z,35.50
2018-05-15T12:13:11.836Z,35.90
2018-05-15T12:18:13.246Z,35.00
2018-05-15T12:23:14.675Z,33.10
2018-05-15T12:28:16.761Z,36.00
2018-05-15T12:33:18.863Z,34.80
2018-05-15T12:38:20.875Z,34.80
2018-05-15T12:43:22.168Z,34.70
2018-05-15T12:48:23.576Z,35.90
2018-05-15T12:53:24.886Z,36.60
2018-05-15T12:58:26.248Z,34.80
2018-05-15T13:03:27.701Z,37.20
2018-05-15T13:08:28.931Z,38.60
2018-05-15T13:13:30.263Z,34.40
2018-05-15T13:18:32.366Z,35.10
2018-05-15T13:23:34.417Z,34.00
2018-05-15T13:28:35.794Z,34.00
2018-05-15T13:33:37.828Z,35.10
2018-05-15T13:38:39.113Z,35.10
2018-05-15T13:43:40.483Z,35.40
2018-05-15T13:48:41.864Z,32.20
2018-05-15T13:53:43.160Z,32.60
2018-05-15T13:58:44.487Z,35.50
2018-05-15T14:03:46.580Z,38.30
2018-05-15T14:08:47.893Z,38.30
2018-05-15T14:13:49.180Z,34.80
2018-05-15T14:18:51.268Z,34.50
2018-05-15T14:23:53.374Z,32.40
2018-05-15T14:28:54.696Z,32.30
2018-05-15T14:33:56.793Z,32.90
2018-05-15T14:38:58.118Z,32.80
2018-05-15T14:44:00.441Z,31.50
2018-05-15T14:49:02.466Z,29.40
2018-05-15T14:54:05.661Z,29.40
2018-05-15T14:59:06.956Z,30.30
2018-05-15T15:04:08.254Z,30.00
2018-05-15T15:09:09.630Z,28.90
2018-05-15T15:14:10.985Z,26.60
2018-05-15T15:19:12.325Z,30.00
2018-05-15T15:24:13.592Z,28.90
2018-05-15T15:29:15.809Z,31.60
2018-05-15T15:34:17.224Z,31.60
2018-05-15T15:39:18.667Z,32.10
2018-05-15T15:44:20.052Z,28.80
2018-05-15T15:49:21.551Z,27.20
2018-05-15T15:54:22.940Z,29.80
2018-05-15T15:59:24.311Z,30.50
2018-05-15T16:04:26.399Z,28.90
2018-05-15T16:09:27.760Z,28.90
2018-05-15T16:14:29.846Z,31.90
2018-05-15T16:19:31.252Z,31.80
2018-05-15T16:24:33.320Z,34.90
2018-05-15T16:29:34.648Z,34.90
2018-05-15T16:34:35.963Z,36.90
2018-05-15T16:39:38.125Z,36.00
2018-05-15T16:44:40.198Z,35.20
2018-05-15T16:49:41.584Z,35.20
2018-05-15T16:54:43.672Z,35.40
2018-05-15T16:59:45.759Z,35.70
2018-05-15T17:04:47.071Z,35.60
2018-05-15T17:09:48.331Z,36.90
2018-05-15T17:14:49.636Z,36.10
2018-05-15T17:19:51.737Z,39.90
2018-05-15T17:24:53.120Z,39.90
2018-05-15T17:29:54.446Z,38.70
2018-05-15T17:34:56.535Z,41.50
2018-05-15T17:39:57.891Z,41.50
2018-05-15T17:44:59.944Z,44.20
2018-05-15T17:50:01.267Z,44.20
2018-05-15T17:55:02.590Z,45.00
2018-05-15T18:00:04.715Z,46.30
2018-05-15T18:05:06.015Z,46.30
2018-05-15T18:10:08.101Z,47.30
2018-05-15T18:15:10.286Z,49.50
2018-05-15T18:20:11.515Z,48.90
2018-05-15T18:25:12.966Z,49.50
2018-05-15T18:30:14.303Z,53.70
2018-05-15T18:35:15.575Z,56.80
2018-05-15T18:40:17.008Z,58.40
2018-05-15T18:45:18.409Z,53.70
2018-05-15T18:50:19.672Z,48.70
2018-05-15T18:55:20.956Z,48.40
2018-05-15T19:00:22.225Z,48.60
2018-05-15T19:05:23.526Z,49.70
2018-05-15T19:10:25.524Z,52.90
2018-05-15T19:15:26.829Z,53.30
2018-05-15T19:20:28.159Z,53.80
2018-05-15T19:25:29.462Z,54.70
2018-05-15T19:30:30.830Z,55.40
2018-05-15T19:35:39.003Z,59.20
2018-05-15T19:40:41.392Z,59.20
2018-05-15T19:45:42.648Z,62.00
2018-05-15T19:50:43.950Z,64.10
2018-05-15T19:55:45.331Z,65.60
2018-05-15T20:00:46.689Z,66.60
2018-05-15T20:05:48.010Z,69.40
2018-05-15T20:10:49.284Z,73.20
2018-05-15T20:15:51.631Z,73.60
2018-05-15T20:20:53.681Z,77.70
2018-05-15T20:25:55.693Z,78.10
2018-05-15T20:30:57.016Z,78.10
2018-05-15T20:35:58.391Z,78.60
2018-05-15T20:40:59.721Z,81.60
2018-05-15T20:46:01.034Z,81.10
2018-05-15T20:51:02.355Z,83.00
2018-05-15T20:56:03.751Z,83.00
2018-05-15T21:01:05.937Z,83.40
2018-05-15T21:06:08.034Z,83.70
2018-05-15T21:11:09.389Z,83.60
2018-05-15T21:16:10.875Z,82.60
2018-05-15T21:21:12.175Z,81.80
2018-05-15T21:26:14.256Z,80.40
2018-05-15T21:31:15.640Z,81.20
2018-05-15T21:36:16.968Z,82.90
2018-05-15T21:41:18.338Z,83.20
2018-05-15T21:46:19.630Z,81.90
2018-05-15T21:51:21.796Z,81.80
2018-05-15T21:56:23.171Z,81.80
2018-05-15T22:01:25.304Z,79.40
2018-05-15T22:06:27.320Z,78.90
2018-05-15T22:11:30.043Z,78.70
2018-05-15T22:16:44.278Z,78.20
2018-05-15T22:21:58.834Z,78.30
2018-05-15T22:27:00.240Z,77.10
2018-05-15T22:32:02.709Z,76.70
2018-05-15T22:37:04.941Z,76.70
2018-05-15T22:42:07.101Z,77.00
2018-05-15T22:47:09.261Z,74.00
2018-05-15T22:52:10.563Z,74.00
2018-05-15T22:57:11.812Z,74.30
2018-05-15T23:02:13.472Z,75.70
2018-05-15T23:07:15.542Z,78.70
2018-05-15T23:12:17.589Z,78.00
2018-05-15T23:17:18.817Z,78.10
2018-05-15T23:22:32.460Z,77.00
2018-05-15T23:27:33.797Z,79.70
2018-05-15T23:32:35.877Z,80.80
2018-05-15T23:37:38.000Z,78.90
2018-05-15T23:42:39.291Z,78.80
2018-05-15T23:47:40.659Z,78.70
2018-05-15T23:52:41.916Z,81.80
2018-05-15T23:57:43.266Z,84.30
